createdAt,value
2023-01-22T00:01:48.334Z,1015.80
2023-01-22T00:04:21.224Z,1015.80
2023-01-22T00:06:54.241Z,1015.80
2023-01-22T00:09:27.322Z,1015.78
2023-01-22T00:12:00.364Z,1015.76
2023-01-22T00:14:33.438Z,1015.74
2023-01-22T00:17:06.247Z,1015.73
2023-01-22T00:19:39.360Z,1015.72
2023-01-22T00:22:12.231Z,1015.71
2023-01-22T00:24:45.285Z,1015.69
2023-01-22T00:27:18.263Z,1015.68
2023-01-22T00:29:51.268Z,1015.68
2023-01-22T00:32:24.298Z,1015.67
2023-01-22T00:34:57.374Z,1015.67
2023-01-22T00:37:30.299Z,1015.65
2023-01-22T00:40:03.344Z,1015.65
2023-01-22T00:42:36.443Z,1015.63
2023-01-22T00:45:09.385Z,1015.61
2023-01-22T00:47:45.277Z,1015.60
2023-01-22T00:50:20.544Z,1015.57
2023-01-22T00:52:53.336Z,1015.55
2023-01-22T00:55:26.351Z,1015.53
2023-01-22T00:57:59.335Z,1015.51
2023-01-22T01:00:38.305Z,1015.49
2023-01-22T01:03:05.402Z,1015.48
2023-01-22T01:05:38.325Z,1015.46
2023-01-22T01:08:11.466Z,1015.45
2023-01-22T01:10:44.208Z,1015.44
2023-01-22T01:13:17.544Z,1015.44
2023-01-22T01:15:50.346Z,1015.43
2023-01-22T01:18:23.387Z,1015.41
2023-01-22T01:20:56.125Z,1015.42
2023-01-22T01:23:29.429Z,1015.41
2023-01-22T01:26:02.437Z,1015.39
2023-01-22T01:28:35.462Z,1015.39
2023-01-22T01:31:08.573Z,1015.37
2023-01-22T01:33:41.467Z,1015.38
2023-01-22T01:36:14.353Z,1015.37
2023-01-22T01:38:47.368Z,1015.39
2023-01-22T01:41:20.469Z,1015.39
2023-01-22T01:43:58.739Z,1015.39
2023-01-22T01:46:26.624Z,1015.38
2023-01-22T01:48:59.376Z,1015.39
2023-01-22T01:51:32.436Z,1015.39
2023-01-22T01:54:05.408Z,1015.37
2023-01-22T01:56:38.518Z,1015.36
2023-01-22T01:59:11.657Z,1015.35
2023-01-22T02:01:45.590Z,1015.33
2023-01-22T02:04:18.452Z,1015.31
2023-01-22T02:06:51.507Z,1015.30
2023-01-22T02:09:24.533Z,1015.31
2023-01-22T02:11:57.411Z,1015.31
2023-01-22T02:14:30.404Z,1015.29
2023-01-22T02:17:03.549Z,1015.28
2023-01-22T02:19:36.526Z,1015.27
2023-01-22T02:22:09.379Z,1015.26
2023-01-22T02:24:42.468Z,1015.26
2023-01-22T02:27:15.570Z,1015.26
2023-01-22T02:29:48.455Z,1015.26
2023-01-22T02:32:21.633Z,1015.25
2023-01-22T02:34:54.425Z,1015.25
2023-01-22T02:37:27.430Z,1015.24
2023-01-22T02:40:00.566Z,1015.21
2023-01-22T02:42:33.458Z,1015.20
2023-01-22T02:45:06.593Z,1015.20
2023-01-22T02:47:39.661Z,1015.20
2023-01-22T02:50:12.565Z,1015.18
2023-01-22T02:52:45.592Z,1015.18
2023-01-22T02:55:18.206Z,1015.19
2023-01-22T02:57:51.589Z,1015.18
2023-01-22T03:00:24.617Z,1015.18
2023-01-22T03:02:57.696Z,1015.18
2023-01-22T03:05:30.443Z,1015.18
2023-01-22T03:08:03.550Z,1015.18
2023-01-22T03:10:36.412Z,1015.19
2023-01-22T03:13:09.425Z,1015.18
2023-01-22T03:15:42.522Z,1015.18
2023-01-22T03:18:15.665Z,1015.18
2023-01-22T03:20:48.449Z,1015.19
2023-01-22T03:23:35.574Z,1015.18
2023-01-22T03:26:08.512Z,1015.16
2023-01-22T03:28:41.644Z,1015.16
2023-01-22T03:31:14.744Z,1015.14
2023-01-22T03:33:47.726Z,1015.12
2023-01-22T03:36:20.572Z,1015.10
2023-01-22T03:38:53.644Z,1015.10
2023-01-22T03:41:26.685Z,1015.08
2023-01-22T03:43:59.618Z,1015.07
2023-01-22T03:46:32.590Z,1015.08
2023-01-22T03:49:05.647Z,1015.07
2023-01-22T03:51:38.677Z,1015.07
2023-01-22T03:54:11.588Z,1015.08
2023-01-22T03:56:44.688Z,1015.08
2023-01-22T03:59:17.675Z,1015.07
2023-01-22T04:01:50.587Z,1015.07
2023-01-22T04:04:23.839Z,1015.06
2023-01-22T04:06:56.572Z,1015.05
2023-01-22T04:09:29.731Z,1015.06
2023-01-22T04:12:02.540Z,1015.06
2023-01-22T04:14:35.710Z,1015.07
2023-01-22T04:17:08.727Z,1015.08
2023-01-22T04:19:41.835Z,1015.11
2023-01-22T04:22:14.353Z,1015.13
2023-01-22T04:24:47.684Z,1015.15
2023-01-22T04:27:20.623Z,1015.17
2023-01-22T04:29:53.629Z,1015.18
2023-01-22T04:32:26.644Z,1015.17
2023-01-22T04:34:59.868Z,1015.19
2023-01-22T04:37:35.653Z,1015.21
2023-01-22T04:40:08.747Z,1015.23
2023-01-22T04:42:41.715Z,1015.24
2023-01-22T04:45:14.796Z,1015.24
2023-01-22T04:47:47.809Z,1015.23
2023-01-22T04:50:21.036Z,1015.24
2023-01-22T04:52:53.827Z,1015.24
2023-01-22T04:55:26.677Z,1015.25
2023-01-22T04:57:59.713Z,1015.25
2023-01-22T05:00:32.813Z,1015.25
2023-01-22T05:03:05.644Z,1015.25
2023-01-22T05:05:44.739Z,1015.23
2023-01-22T05:08:11.769Z,1015.23
2023-01-22T05:10:44.848Z,1015.23
2023-01-22T05:13:31.745Z,1015.23
2023-01-22T05:16:04.518Z,1015.24
2023-01-22T05:18:37.834Z,1015.26
2023-01-22T05:21:10.469Z,1015.27
2023-01-22T05:23:43.907Z,1015.28
2023-01-22T05:26:16.824Z,1015.30
2023-01-22T05:28:49.691Z,1015.32
2023-01-22T05:31:22.816Z,1015.33
2023-01-22T05:33:55.703Z,1015.36
2023-01-22T05:36:28.728Z,1015.38
2023-01-22T05:39:01.917Z,1015.40
2023-01-22T05:41:34.712Z,1015.40
2023-01-22T05:44:07.641Z,1015.41
2023-01-22T05:46:40.771Z,1015.41
2023-01-22T05:49:13.831Z,1015.42
2023-01-22T05:51:46.867Z,1015.46
2023-01-22T05:54:19.860Z,1015.47
2023-01-22T05:56:52.881Z,1015.49
2023-01-22T05:59:25.864Z,1015.52
2023-01-22T06:01:58.799Z,1015.52
2023-01-22T06:04:31.490Z,1015.52
2023-01-22T06:07:04.932Z,1015.52
2023-01-22T06:09:37.996Z,1015.52
2023-01-22T06:12:10.899Z,1015.52
2023-01-22T06:14:43.866Z,1015.53
2023-01-22T06:17:16.802Z,1015.54
2023-01-22T06:19:49.806Z,1015.54
2023-01-22T06:22:22.910Z,1015.55
2023-01-22T06:24:55.941Z,1015.56
2023-01-22T06:27:28.891Z,1015.57
2023-01-22T06:30:01.905Z,1015.57
2023-01-22T06:32:34.802Z,1015.57
2023-01-22T06:35:07.761Z,1015.56
2023-01-22T06:37:40.852Z,1015.56
2023-01-22T06:40:13.944Z,1015.55
2023-01-22T06:42:46.957Z,1015.54
2023-01-22T06:45:19.935Z,1015.55
2023-01-22T06:47:52.969Z,1015.56
2023-01-22T06:50:25.883Z,1015.59
2023-01-22T06:52:58.820Z,1015.62
2023-01-22T06:55:32.090Z,1015.63
2023-01-22T06:58:04.948Z,1015.65
2023-01-22T07:00:37.731Z,1015.67
2023-01-22T07:03:10.850Z,1015.71
2023-01-22T07:05:43.984Z,1015.75
2023-01-22T07:08:16.869Z,1015.80
2023-01-22T07:10:49.780Z,1015.84
2023-01-22T07:13:22.864Z,1015.86
2023-01-22T07:15:55.968Z,1015.89
2023-01-22T07:18:28.908Z,1015.92
2023-01-22T07:21:05.726Z,1015.95
2023-01-22T07:23:38.880Z,1015.97
2023-01-22T07:26:12.111Z,1015.99
2023-01-22T07:28:44.898Z,1016.02
2023-01-22T07:31:17.803Z,1016.05
2023-01-22T07:33:50.979Z,1016.07
2023-01-22T07:36:24.031Z,1016.10
2023-01-22T07:38:57.034Z,1016.14
2023-01-22T07:41:30.134Z,1016.16
2023-01-22T07:44:03.006Z,1016.18
2023-01-22T07:46:35.903Z,1016.21
2023-01-22T07:49:09.135Z,1016.23
2023-01-22T07:51:43.021Z,1016.25
2023-01-22T07:54:18.272Z,1016.29
2023-01-22T07:56:48.874Z,1016.32
2023-01-22T07:59:21.822Z,1016.35
2023-01-22T08:01:55.111Z,1016.38
2023-01-22T08:04:27.669Z,1016.41
2023-01-22T08:07:01.030Z,1016.43
2023-01-22T08:09:33.949Z,1016.46
2023-01-22T08:12:07.078Z,1016.49
2023-01-22T08:14:40.019Z,1016.52
2023-01-22T08:17:19.043Z,1016.54
2023-01-22T08:19:51.977Z,1016.58
2023-01-22T08:22:25.143Z,1016.60
2023-01-22T08:24:57.884Z,1016.61
2023-01-22T08:27:30.964Z,1016.65
2023-01-22T08:30:03.778Z,1016.67
2023-01-22T08:32:36.822Z,1016.69
2023-01-22T08:35:09.992Z,1016.70
2023-01-22T08:37:43.005Z,1016.71
2023-01-22T08:40:16.230Z,1016.73
2023-01-22T08:42:49.124Z,1016.76
2023-01-22T08:45:22.070Z,1016.79
2023-01-22T08:47:54.852Z,1016.81
2023-01-22T08:50:28.185Z,1016.83
2023-01-22T08:53:00.750Z,1016.86
2023-01-22T08:55:33.895Z,1016.87
2023-01-22T08:58:06.922Z,1016.89
2023-01-22T09:00:39.817Z,1016.89
2023-01-22T09:03:12.764Z,1016.91
2023-01-22T09:05:46.107Z,1016.92
2023-01-22T09:08:24.911Z,1016.93
2023-01-22T09:10:58.052Z,1016.94
2023-01-22T09:13:31.089Z,1016.96
2023-01-22T09:16:03.804Z,1016.96
2023-01-22T09:18:36.834Z,1016.96
2023-01-22T09:21:09.824Z,1016.98
2023-01-22T09:23:42.794Z,1016.99
2023-01-22T09:26:16.043Z,1017.01
2023-01-22T09:28:48.915Z,1017.04
2023-01-22T09:31:22.159Z,1017.06
2023-01-22T09:33:54.799Z,1017.10
2023-01-22T09:36:28.100Z,1017.13
2023-01-22T09:39:00.955Z,1017.15
2023-01-22T09:41:34.002Z,1017.19
2023-01-22T09:44:07.225Z,1017.21
2023-01-22T09:46:39.942Z,1017.23
2023-01-22T09:49:12.825Z,1017.25
2023-01-22T09:51:46.058Z,1017.26
2023-01-22T09:54:18.858Z,1017.27
2023-01-22T09:56:51.841Z,1017.29
2023-01-22T09:59:25.066Z,1017.29
2023-01-22T10:01:57.924Z,1017.29
2023-01-22T10:04:30.993Z,1017.31
2023-01-22T10:07:03.885Z,1017.32
2023-01-22T10:09:36.922Z,1017.33
2023-01-22T10:12:09.907Z,1017.34
2023-01-22T10:14:43.181Z,1017.35
2023-01-22T10:17:15.891Z,1017.33
2023-01-22T10:19:48.891Z,1017.32
2023-01-22T10:22:22.098Z,1017.31
2023-01-22T10:24:55.038Z,1017.33
2023-01-22T10:27:28.292Z,1017.33
2023-01-22T10:30:01.413Z,1017.34
2023-01-22T10:32:34.188Z,1017.35
2023-01-22T10:35:07.171Z,1017.36
2023-01-22T10:37:40.190Z,1017.37
2023-01-22T10:40:13.201Z,1017.38
2023-01-22T10:42:46.305Z,1017.39
2023-01-22T10:45:19.429Z,1017.37
2023-01-22T10:47:52.252Z,1017.36
2023-01-22T10:50:25.084Z,1017.35
2023-01-22T10:52:57.978Z,1017.36
2023-01-22T10:55:31.308Z,1017.36
2023-01-22T10:58:04.068Z,1017.35
2023-01-22T11:00:50.580Z,1017.36
2023-01-22T11:03:09.941Z,1017.37
2023-01-22T11:05:43.329Z,1017.38
2023-01-22T11:08:15.982Z,1017.38
2023-01-22T11:10:49.327Z,1017.40
2023-01-22T11:13:25.122Z,1017.39
2023-01-22T11:15:58.126Z,1017.40
2023-01-22T11:18:31.183Z,1017.39
2023-01-22T11:21:04.247Z,1017.41
2023-01-22T11:23:37.268Z,1017.41
2023-01-22T11:26:10.269Z,1017.40
2023-01-22T11:28:43.105Z,1017.41
2023-01-22T11:31:16.258Z,1017.41
2023-01-22T11:33:49.287Z,1017.41
2023-01-22T11:36:22.337Z,1017.43
2023-01-22T11:38:55.097Z,1017.43
2023-01-22T11:41:28.229Z,1017.44
2023-01-22T11:44:01.377Z,1017.43
2023-01-22T11:46:34.594Z,1017.43
2023-01-22T11:49:07.419Z,1017.42
2023-01-22T11:51:40.392Z,1017.39
2023-01-22T11:54:13.353Z,1017.36
2023-01-22T11:56:46.405Z,1017.33
2023-01-22T11:59:19.231Z,1017.33
2023-01-22T12:01:52.539Z,1017.33
2023-01-22T12:04:25.219Z,1017.31
2023-01-22T12:06:58.170Z,1017.27
2023-01-22T12:09:31.167Z,1017.26
2023-01-22T12:12:04.066Z,1017.24
2023-01-22T12:14:37.435Z,1017.23
2023-01-22T12:17:10.161Z,1017.22
2023-01-22T12:19:43.457Z,1017.18
2023-01-22T12:22:16.401Z,1017.18
2023-01-22T12:24:49.391Z,1017.17
2023-01-22T12:27:22.202Z,1017.15
2023-01-22T12:29:55.250Z,1017.14
2023-01-22T12:32:28.305Z,1017.13
2023-01-22T12:35:01.174Z,1017.13
2023-01-22T12:37:34.093Z,1017.11
2023-01-22T12:40:07.357Z,1017.11
2023-01-22T12:42:40.165Z,1017.11
2023-01-22T12:45:13.384Z,1017.12
2023-01-22T12:47:46.438Z,1017.14
2023-01-22T12:50:19.879Z,1017.14
2023-01-22T12:52:52.519Z,1017.13
2023-01-22T12:55:25.513Z,1017.13
2023-01-22T12:57:58.251Z,1017.13
2023-01-22T13:00:31.235Z,1017.13
2023-01-22T13:03:30.715Z,1017.13
2023-01-22T13:05:51.229Z,1017.14
2023-01-22T13:08:24.171Z,1017.13
2023-01-22T13:10:57.205Z,1017.13
2023-01-22T13:13:30.251Z,1017.14
2023-01-22T13:16:03.218Z,1017.15
2023-01-22T13:18:36.421Z,1017.15
2023-01-22T13:21:09.167Z,1017.15
2023-01-22T13:23:42.274Z,1017.17
2023-01-22T13:26:15.458Z,1017.19
2023-01-22T13:28:48.232Z,1017.21
2023-01-22T13:31:21.504Z,1017.25
2023-01-22T13:33:54.370Z,1017.28
2023-01-22T13:36:27.491Z,1017.30
2023-01-22T13:39:00.174Z,1017.30
2023-01-22T13:41:33.332Z,1017.32
2023-01-22T13:44:06.419Z,1017.36
2023-01-22T13:46:39.333Z,1017.37
2023-01-22T13:49:12.569Z,1017.38
2023-01-22T13:51:45.412Z,1017.39
2023-01-22T13:54:18.233Z,1017.42
2023-01-22T13:56:51.294Z,1017.44
2023-01-22T13:59:24.511Z,1017.46
2023-01-22T14:01:57.421Z,1017.45
2023-01-22T14:04:30.738Z,1017.45
2023-01-22T14:07:03.609Z,1017.46
2023-01-22T14:09:36.319Z,1017.46
2023-01-22T14:12:09.527Z,1017.45
2023-01-22T14:14:42.395Z,1017.46
2023-01-22T14:17:29.584Z,1017.48
2023-01-22T14:20:02.670Z,1017.48
2023-01-22T14:22:35.539Z,1017.49
2023-01-22T14:25:08.645Z,1017.50
2023-01-22T14:27:41.603Z,1017.51
2023-01-22T14:30:14.608Z,1017.52
2023-01-22T14:32:47.539Z,1017.53
2023-01-22T14:37:53.272Z,1017.54
2023-01-22T14:40:26.271Z,1017.57
2023-01-22T14:42:59.448Z,1017.58
2023-01-22T14:45:32.665Z,1017.61
2023-01-22T14:48:05.658Z,1017.62
2023-01-22T14:50:38.540Z,1017.64
2023-01-22T14:53:11.287Z,1017.65
2023-01-22T14:55:44.638Z,1017.65
2023-01-22T14:58:17.366Z,1017.65
2023-01-22T15:00:50.306Z,1017.66
2023-01-22T15:03:23.445Z,1017.65
2023-01-22T15:05:56.424Z,1017.67
2023-01-22T15:08:29.685Z,1017.71
2023-01-22T15:11:02.578Z,1017.72
2023-01-22T15:13:35.712Z,1017.75
2023-01-22T15:18:58.371Z,1017.79
2023-01-22T15:21:31.463Z,1017.83
2023-01-22T15:24:04.403Z,1017.85
2023-01-22T15:26:37.376Z,1017.88
2023-01-22T15:29:10.397Z,1017.89
2023-01-22T15:31:43.736Z,1017.91
2023-01-22T15:34:16.658Z,1017.93
2023-01-22T15:36:49.522Z,1017.95
2023-01-22T15:39:22.770Z,1017.95
2023-01-22T15:41:56.527Z,1017.95
2023-01-22T15:44:29.509Z,1017.97
2023-01-22T15:47:02.643Z,1017.99
2023-01-22T15:49:35.475Z,1018.00
2023-01-22T15:52:08.900Z,1018.03
2023-01-22T15:54:41.505Z,1018.05
2023-01-22T15:57:14.557Z,1018.07
2023-01-22T15:59:47.581Z,1018.09
2023-01-22T16:02:20.506Z,1018.11
2023-01-22T16:04:53.573Z,1018.11
2023-01-22T16:07:26.554Z,1018.12
2023-01-22T16:09:59.438Z,1018.14
2023-01-22T16:12:32.466Z,1018.14
2023-01-22T16:15:19.437Z,1018.15
2023-01-22T16:17:52.422Z,1018.15
2023-01-22T16:20:25.656Z,1018.15
2023-01-22T16:22:58.542Z,1018.14
2023-01-22T16:25:31.823Z,1018.16
2023-01-22T16:28:04.724Z,1018.17
2023-01-22T16:30:37.527Z,1018.19
2023-01-22T16:33:10.735Z,1018.20
2023-01-22T16:35:46.843Z,1018.22
2023-01-22T16:38:19.597Z,1018.24
2023-01-22T16:40:52.805Z,1018.26
2023-01-22T16:43:25.471Z,1018.28
2023-01-22T16:45:58.487Z,1018.29
2023-01-22T16:48:31.559Z,1018.31
2023-01-22T16:51:04.844Z,1018.32
2023-01-22T16:53:37.860Z,1018.33
2023-01-22T16:56:10.879Z,1018.36
2023-01-22T16:58:43.852Z,1018.39
2023-01-22T17:01:16.859Z,1018.43
2023-01-22T17:03:49.757Z,1018.45
2023-01-22T17:06:22.887Z,1018.46
2023-01-22T17:08:55.913Z,1018.47
2023-01-22T17:11:28.490Z,1018.49
2023-01-22T17:14:15.407Z,1018.51
2023-01-22T17:16:48.798Z,1018.54
2023-01-22T17:19:21.739Z,1018.57
2023-01-22T17:21:54.944Z,1018.61
2023-01-22T17:24:27.994Z,1018.64
2023-01-22T17:27:00.835Z,1018.66
2023-01-22T17:29:33.913Z,1018.69
2023-01-22T17:32:06.823Z,1018.71
2023-01-22T17:34:39.546Z,1018.74
2023-01-22T17:37:12.537Z,1018.75
2023-01-22T17:39:45.966Z,1018.77
2023-01-22T17:42:19.007Z,1018.77
2023-01-22T17:44:52.772Z,1018.77
2023-01-22T17:47:25.537Z,1018.79
2023-01-22T17:49:58.787Z,1018.78
2023-01-22T17:52:31.703Z,1018.79
2023-01-22T17:55:04.769Z,1018.79
2023-01-22T17:57:37.823Z,1018.80
2023-01-22T18:00:10.597Z,1018.81
2023-01-22T18:02:43.967Z,1018.83
2023-01-22T18:05:17.001Z,1018.85
2023-01-22T18:07:49.660Z,1018.90
2023-01-22T18:10:22.767Z,1018.94
2023-01-22T18:12:55.760Z,1018.98
2023-01-22T18:15:28.652Z,1019.01
2023-01-22T18:18:01.653Z,1019.03
2023-01-22T18:20:34.700Z,1019.05
2023-01-22T18:23:07.621Z,1019.06
2023-01-22T18:25:41.020Z,1019.09
2023-01-22T18:28:13.657Z,1019.10
2023-01-22T18:30:47.003Z,1019.13
2023-01-22T18:33:19.985Z,1019.15
2023-01-22T18:35:52.974Z,1019.18
2023-01-22T18:38:25.908Z,1019.19
2023-01-22T18:40:59.158Z,1019.20
2023-01-22T18:43:32.036Z,1019.19
2023-01-22T18:46:04.739Z,1019.22
2023-01-22T18:48:37.937Z,1019.25
2023-01-22T18:51:10.722Z,1019.25
2023-01-22T18:53:43.767Z,1019.26
2023-01-22T18:56:16.892Z,1019.27
2023-01-22T18:58:49.830Z,1019.28
2023-01-22T19:01:22.938Z,1019.29
2023-01-22T19:03:55.939Z,1019.28
2023-01-22T19:06:28.872Z,1019.29
2023-01-22T19:09:02.090Z,1019.29
2023-01-22T19:11:34.915Z,1019.30
2023-01-22T19:14:07.852Z,1019.32
2023-01-22T19:16:40.976Z,1019.32
2023-01-22T19:19:19.827Z,1019.34
2023-01-22T19:21:52.761Z,1019.35
2023-01-22T19:24:25.829Z,1019.38
2023-01-22T19:26:58.948Z,1019.40
2023-01-22T19:29:31.938Z,1019.41
2023-01-22T19:32:05.036Z,1019.42
2023-01-22T19:34:38.091Z,1019.45
2023-01-22T19:37:10.875Z,1019.47
2023-01-22T19:39:44.114Z,1019.50
2023-01-22T19:42:17.052Z,1019.53
2023-01-22T19:44:50.139Z,1019.56
2023-01-22T19:47:23.027Z,1019.58
2023-01-22T19:49:55.946Z,1019.62
2023-01-22T19:52:29.049Z,1019.63
2023-01-22T19:55:02.009Z,1019.66
2023-01-22T19:57:34.983Z,1019.66
2023-01-22T20:00:07.811Z,1019.69
2023-01-22T20:02:40.847Z,1019.70
2023-01-22T20:05:13.787Z,1019.72
2023-01-22T20:07:47.162Z,1019.74
2023-01-22T20:10:19.936Z,1019.76
2023-01-22T20:12:53.083Z,1019.78
2023-01-22T20:15:25.900Z,1019.80
2023-01-22T20:17:58.963Z,1019.81
2023-01-22T20:20:31.879Z,1019.82
2023-01-22T20:23:05.983Z,1019.82
2023-01-22T20:25:38.831Z,1019.84
2023-01-22T20:28:12.007Z,1019.85
2023-01-22T20:30:45.085Z,1019.87
2023-01-22T20:33:18.078Z,1019.89
2023-01-22T20:36:04.717Z,1019.90
2023-01-22T20:38:37.930Z,1019.89
2023-01-22T20:41:11.010Z,1019.89
2023-01-22T20:43:44.080Z,1019.88
2023-01-22T20:46:16.952Z,1019.87
2023-01-22T20:48:50.257Z,1019.84
2023-01-22T20:51:22.961Z,1019.84
2023-01-22T20:54:01.988Z,1019.85
2023-01-22T20:56:34.986Z,1019.88
2023-01-22T20:59:08.287Z,1019.89
2023-01-22T21:01:40.907Z,1019.91
2023-01-22T21:04:14.106Z,1019.93
2023-01-22T21:06:46.996Z,1019.92
2023-01-22T21:09:19.875Z,1019.91
2023-01-22T21:11:53.165Z,1019.90
2023-01-22T21:14:26.276Z,1019.91
2023-01-22T21:16:59.062Z,1019.92
2023-01-22T21:19:32.250Z,1019.92
2023-01-22T21:22:05.069Z,1019.92
2023-01-22T21:24:38.211Z,1019.91
2023-01-22T21:27:11.209Z,1019.91
2023-01-22T21:29:44.074Z,1019.92
2023-01-22T21:32:17.195Z,1019.94
2023-01-22T21:34:50.103Z,1019.95
2023-01-22T21:37:25.139Z,1019.96
2023-01-22T21:39:58.339Z,1019.97
2023-01-22T21:42:31.210Z,1019.97
2023-01-22T21:45:10.072Z,1019.99
2023-01-22T21:47:37.062Z,1020.00
2023-01-22T21:50:09.947Z,1020.02
2023-01-22T21:52:45.238Z,1020.03
2023-01-22T21:55:15.965Z,1020.04
2023-01-22T21:57:49.129Z,1020.04
2023-01-22T22:00:22.463Z,1020.04
2023-01-22T22:02:55.082Z,1020.07
2023-01-22T22:05:28.159Z,1020.04
2023-01-22T22:08:01.079Z,1020.06
2023-01-22T22:10:33.993Z,1020.06
2023-01-22T22:13:07.148Z,1020.08
2023-01-22T22:15:40.068Z,1020.09
2023-01-22T22:18:13.088Z,1020.11
2023-01-22T22:20:46.083Z,1020.10
2023-01-22T22:23:19.361Z,1020.09
2023-01-22T22:25:52.257Z,1020.11
2023-01-22T22:28:25.138Z,1020.10
2023-01-22T22:30:58.059Z,1020.12
2023-01-22T22:33:31.097Z,1020.16
2023-01-22T22:36:03.995Z,1020.18
2023-01-22T22:38:37.152Z,1020.21
2023-01-22T22:41:10.139Z,1020.22
2023-01-22T22:43:43.178Z,1020.24
2023-01-22T22:46:16.095Z,1020.26
2023-01-22T22:48:51.289Z,1020.27
2023-01-22T22:51:24.467Z,1020.29
2023-01-22T22:53:57.201Z,1020.29
2023-01-22T22:56:30.037Z,1020.30
2023-01-22T22:59:03.059Z,1020.32
2023-01-22T23:01:36.363Z,1020.34
2023-01-22T23:04:09.483Z,1020.35
2023-01-22T23:06:42.424Z,1020.36
2023-01-22T23:09:15.351Z,1020.37
2023-01-22T23:11:48.381Z,1020.39
2023-01-22T23:14:21.439Z,1020.39
2023-01-22T23:16:54.674Z,1020.39
2023-01-22T23:19:28.469Z,1020.40
2023-01-22T23:22:05.200Z,1020.39
2023-01-22T23:24:38.350Z,1020.40
2023-01-22T23:27:11.424Z,1020.40
2023-01-22T23:29:44.443Z,1020.42
2023-01-22T23:32:17.401Z,1020.43
2023-01-22T23:34:50.505Z,1020.43
2023-01-22T23:37:23.480Z,1020.45
2023-01-22T23:39:56.597Z,1020.48
2023-01-22T23:42:30.384Z,1020.47
2023-01-22T23:45:03.522Z,1020.47
2023-01-22T23:47:36.257Z,1020.45
2023-01-22T23:50:09.242Z,1020.44
2023-01-22T23:52:42.426Z,1020.42
2023-01-22T23:55:15.430Z,1020.41
2023-01-22T23:57:48.500Z,1020.40
